UACC/TSE METAR and TAF weather

Enter ICAO airport designator
Station Type Date Time Source
UACC METAR 2021/09/24 05:30 UTC NOAA

UACC 240530Z 07002MPS 360V150 9999 FEW023 07/01 Q1030 R04/0///70 NOSIG RMK QFE741/0988


Station Type Date Time Source
UACC Decoded METAR 2021/09/24 05:30 UTC NOAA

Astana, Kazakhstan (UACC) 51-12N 071-27E
Sep 24, 2021 - 01:30 AM EDT / 2021.09.24 0530 UTC
Wind: from the ENE (070 degrees) at 4 MPH (4 KT) (direction variable):0
Visibility: greater than 7 mile(s):0
Sky conditions: mostly clear
Temperature: 44 F (7 C)
Dew Point: 33 F (1 C)
Relative Humidity: 65%
Pressure (altimeter): 30.42 in. Hg (1030 hPa)
ob: UACC 240530Z 07002MPS 360V150 9999 FEW023 07/01 Q1030 R04/0///70 NOSIG RMK QFE741/0988
cycle: 5

Station Type Date Time Source
UACC TAF 2021/09/24 06:24 UTC NOAA

TAF UACC 240501Z 2406/2506 VRB02MPS 9999 SCT020 BKN070 TX09/2409Z TNM05/2501Z
TEMPO 2406/2412 33005MPS FEW005
BECMG 2415/2417 3100 BR SCT005
TEMPO 2418/2502 13003MPS 0300 FZFG VV002
BECMG 2502/2504 6000 NSW SCT007
BECMG 2504/2506 SCT020 BKN060

Example: see airport list